Terminal Aerodrome Forecast
Issued by NWS

Home | Current Version | Previous Version | Text Only | Print | Product List | Glossary On
Versions: 1 2 3 4 5 6 7 8 9 10 11 12 13
000
FTUS42 KGSP 261133
TAFAND
TAF
KAND 261133Z 2612/2712 03004KT P6SM SCT090
     FM261700 09005KT P6SM SCT035
     FM261900 10004KT P6SM VCTS SCT040CB
     FM262100 10005KT P6SM SCT045 PROB30 2621/2624 4SM -TSRA
      BKN045CB BKN050
     FM270000 12005KT P6SM FEW250
     FM271100 VRB02KT P6SM SCT007 BKN080=

USA.gov is the U.S. government's official web portal to all federal, state and local government web resources and services.